createdAt,value
2023-11-19T00:00:57.682Z,7.17
2023-11-19T00:02:17.563Z,7.17
2023-11-19T00:03:42.759Z,7.16
2023-11-19T00:05:06.674Z,7.17
2023-11-19T00:06:26.897Z,7.15
2023-11-19T00:07:51.691Z,7.14
2023-11-19T00:09:11.808Z,7.05
2023-11-19T00:10:37.039Z,7.12
2023-11-19T00:12:01.062Z,7.13
2023-11-19T00:13:21.196Z,7.12
2023-11-19T00:14:45.854Z,7.1
2023-11-19T00:16:06.165Z,7.1
2023-11-19T00:17:31.148Z,7.11
2023-11-19T00:18:55.141Z,7.09
2023-11-19T00:20:15.379Z,7.09
2023-11-19T00:21:40.114Z,6.99
2023-11-19T00:23:00.398Z,7.06
2023-11-19T00:24:25.386Z,6.97
2023-11-19T00:25:49.448Z,7.06
2023-11-19T00:27:09.789Z,7.05
2023-11-19T00:28:34.349Z,7.04
2023-11-19T00:29:54.585Z,7.04
2023-11-19T00:31:19.629Z,7.03
2023-11-19T00:32:43.669Z,7.03
2023-11-19T00:34:03.914Z,6.93
2023-11-19T00:35:28.626Z,7.01
2023-11-19T00:36:48.935Z,7
2023-11-19T00:38:13.913Z,6.99
2023-11-19T00:39:37.903Z,6.99
2023-11-19T00:40:58.131Z,6.97
2023-11-19T00:42:22.830Z,6.89
2023-11-19T00:43:43.165Z,6.89
2023-11-19T00:45:08.276Z,6.96
2023-11-19T00:46:32.168Z,6.96
2023-11-19T00:47:52.403Z,6.97
2023-11-19T00:49:17.111Z,6.95
2023-11-19T00:50:37.340Z,6.86
2023-11-19T00:52:02.377Z,6.93
2023-11-19T00:53:26.520Z,6.92
2023-11-19T00:54:46.659Z,6.84
2023-11-19T00:56:11.369Z,6.92
2023-11-19T00:57:31.589Z,6.91
2023-11-19T00:58:56.743Z,6.91
2023-11-19T01:00:20.688Z,6.91
2023-11-19T01:01:40.938Z,6.88
2023-11-19T01:03:05.613Z,6.88
2023-11-19T01:04:25.828Z,6.89
2023-11-19T01:05:50.924Z,6.87
2023-11-19T01:07:14.937Z,6.78
2023-11-19T01:08:35.170Z,6.85
2023-11-19T01:09:59.872Z,6.85
2023-11-19T01:11:20.102Z,6.84
2023-11-19T01:12:45.169Z,6.84
2023-11-19T01:14:09.203Z,6.83
2023-11-19T01:15:29.450Z,6.82
2023-11-19T01:16:54.109Z,6.81
2023-11-19T01:18:14.345Z,6.81
2023-11-19T01:19:39.407Z,6.81
2023-11-19T01:21:03.467Z,6.8
2023-11-19T01:22:23.674Z,6.79
2023-11-19T01:23:48.391Z,6.78
2023-11-19T01:25:08.587Z,6.7
2023-11-19T01:26:33.646Z,6.79
2023-11-19T01:27:57.686Z,6.77
2023-11-19T01:29:17.910Z,6.77
2023-11-19T01:30:42.666Z,6.75
2023-11-19T01:32:02.861Z,6.76
2023-11-19T01:33:27.951Z,6.76
2023-11-19T01:34:51.916Z,6.67
2023-11-19T01:36:12.186Z,6.73
2023-11-19T01:37:36.849Z,6.74
2023-11-19T01:38:57.092Z,6.73
2023-11-19T01:40:22.170Z,6.72
2023-11-19T01:41:46.177Z,6.72
2023-11-19T01:43:06.427Z,6.72
2023-11-19T01:44:31.139Z,6.7
2023-11-19T01:45:51.404Z,6.71
2023-11-19T01:47:16.421Z,6.7
2023-11-19T01:48:40.417Z,6.68
2023-11-19T01:50:00.659Z,6.67
2023-11-19T01:51:25.365Z,6.68
2023-11-19T01:52:45.610Z,6.66
2023-11-19T01:54:10.745Z,6.67
2023-11-19T01:55:34.746Z,6.57
2023-11-19T01:56:55.029Z,6.65
2023-11-19T01:58:19.591Z,6.64
2023-11-19T01:59:39.870Z,6.65
2023-11-19T02:01:04.909Z,6.63
2023-11-19T02:02:28.931Z,6.64
2023-11-19T02:04:10.572Z,6.61
2023-11-19T02:05:35.640Z,6.6
2023-11-19T02:06:59.644Z,6.52
2023-11-19T02:08:19.884Z,6.6
2023-11-19T02:09:44.562Z,6.6
2023-11-19T02:11:04.818Z,6.59
2023-11-19T02:12:29.886Z,6.58
2023-11-19T02:13:53.892Z,6.58
2023-11-19T02:15:14.211Z,6.59
2023-11-19T02:16:38.857Z,6.57
2023-11-19T02:17:59.086Z,6.57
2023-11-19T02:19:24.134Z,6.56
2023-11-19T02:20:48.144Z,6.55
2023-11-19T02:22:08.412Z,6.54
2023-11-19T02:23:33.099Z,6.53
2023-11-19T02:24:53.446Z,6.54
2023-11-19T02:26:18.413Z,6.53
2023-11-19T02:27:42.388Z,6.52
2023-11-19T02:29:02.647Z,6.51
2023-11-19T02:30:27.355Z,6.51
2023-11-19T02:31:47.577Z,6.52
2023-11-19T02:33:12.665Z,6.51
2023-11-19T02:34:36.661Z,6.5
2023-11-19T02:35:56.899Z,6.41
2023-11-19T02:37:21.617Z,6.48
2023-11-19T02:38:41.860Z,6.48
2023-11-19T02:40:06.896Z,6.49
2023-11-19T02:41:30.903Z,6.39
2023-11-19T02:42:51.142Z,6.46
2023-11-19T02:44:15.864Z,6.37
2023-11-19T02:45:36.078Z,6.46
2023-11-19T02:47:01.181Z,6.45
2023-11-19T02:48:25.176Z,6.45
2023-11-19T02:49:45.412Z,6.44
2023-11-19T02:51:10.129Z,6.44
2023-11-19T02:52:30.339Z,6.43
2023-11-19T02:56:39.724Z,6.41
2023-11-19T02:58:04.358Z,6.42
2023-11-19T02:59:24.577Z,6.4
2023-11-19T03:00:49.677Z,6.39
2023-11-19T03:02:13.699Z,6.4
2023-11-19T03:03:33.893Z,6.4
2023-11-19T03:04:58.590Z,6.39
2023-11-19T03:06:18.830Z,6.39
2023-11-19T03:07:43.899Z,6.3
2023-11-19T03:10:28.155Z,6.37
2023-11-19T03:12:13.985Z,6.35
2023-11-19T03:13:55.727Z,6.37
2023-11-19T03:15:37.630Z,6.35
2023-11-19T03:17:19.307Z,6.34
2023-11-19T03:19:01.094Z,6.34
2023-11-19T03:20:43.066Z,6.33
2023-11-19T03:22:24.674Z,6.32
2023-11-19T03:24:06.461Z,6.32
2023-11-19T03:25:48.229Z,6.3
2023-11-19T03:27:29.981Z,6.32
2023-11-19T03:29:11.796Z,6.3
2023-11-19T03:30:53.595Z,6.28
2023-11-19T03:32:35.352Z,6.19
2023-11-19T03:34:17.142Z,6.27
2023-11-19T03:35:58.934Z,6.25
2023-11-19T03:37:40.735Z,6.25
2023-11-19T03:39:22.498Z,6.26
2023-11-19T03:41:04.263Z,6.25
2023-11-19T03:42:46.067Z,6.25
2023-11-19T03:44:27.864Z,6.24
2023-11-19T03:46:09.633Z,6.23
2023-11-19T03:47:51.374Z,6.23
2023-11-19T03:49:33.205Z,6.23
2023-11-19T03:51:14.976Z,6.22
2023-11-19T03:52:56.777Z,6.22
2023-11-19T03:54:38.548Z,6.21
2023-11-19T03:56:20.400Z,6.2
2023-11-19T03:58:02.143Z,6.12
2023-11-19T03:59:43.913Z,6.18
2023-11-19T04:01:25.677Z,6.19
2023-11-19T04:03:07.500Z,6.17
2023-11-19T04:04:49.278Z,6.18
2023-11-19T04:06:31.041Z,6.18
2023-11-19T04:08:12.800Z,6.15
2023-11-19T04:09:54.627Z,6.16
2023-11-19T04:11:36.398Z,6.15
2023-11-19T04:13:18.175Z,6.14
2023-11-19T04:14:59.935Z,6.14
2023-11-19T04:16:41.745Z,6.14
2023-11-19T04:18:23.541Z,6.12
2023-11-19T04:20:05.310Z,6.12
2023-11-19T04:21:47.083Z,6.01
2023-11-19T04:23:28.914Z,6.1
2023-11-19T04:25:10.688Z,6.11
2023-11-19T04:26:52.445Z,6.1
2023-11-19T04:28:34.215Z,6.1
2023-11-19T04:30:16.032Z,6.09
2023-11-19T04:31:57.804Z,6.08
2023-11-19T04:33:39.680Z,6.08
2023-11-19T04:35:21.365Z,6.07
2023-11-19T04:37:03.167Z,6.05
2023-11-19T04:38:44.923Z,6.06
2023-11-19T04:40:26.713Z,6.07
2023-11-19T04:42:08.480Z,6.05
2023-11-19T04:43:50.303Z,6.05
2023-11-19T04:45:32.062Z,6.05
2023-11-19T04:47:13.882Z,6.04
2023-11-19T04:48:55.625Z,6.04
2023-11-19T04:50:37.416Z,6.03
2023-11-19T04:52:19.215Z,6.02
2023-11-19T04:54:01.005Z,5.94
2023-11-19T04:55:42.766Z,6
2023-11-19T04:57:24.562Z,6
2023-11-19T04:59:06.356Z,5.98
2023-11-19T05:00:48.140Z,5.91
2023-11-19T05:02:29.872Z,5.99
2023-11-19T05:04:11.717Z,5.99
2023-11-19T05:05:53.470Z,5.98
2023-11-19T05:07:35.261Z,5.98
2023-11-19T05:09:17.030Z,5.95
2023-11-19T05:10:58.829Z,5.96
2023-11-19T05:12:40.642Z,5.94
2023-11-19T05:14:22.446Z,5.95
2023-11-19T05:16:04.171Z,5.96
2023-11-19T05:17:45.974Z,5.94
2023-11-19T05:19:27.768Z,5.93
2023-11-19T05:21:09.537Z,5.93
2023-11-19T05:22:51.318Z,5.92
2023-11-19T05:24:33.140Z,5.91
2023-11-19T05:26:14.872Z,5.93
2023-11-19T05:27:56.679Z,5.93
2023-11-19T05:29:38.500Z,5.9
2023-11-19T05:31:20.228Z,5.92
2023-11-19T05:33:02.020Z,5.9
2023-11-19T05:34:43.941Z,5.89
2023-11-19T05:36:25.583Z,5.9
2023-11-19T05:38:07.352Z,5.9
2023-11-19T05:39:49.245Z,5.9
2023-11-19T05:41:30.953Z,5.88
2023-11-19T05:43:12.708Z,5.88
2023-11-19T05:44:54.509Z,5.87
2023-11-19T05:46:36.285Z,5.87
2023-11-19T05:48:18.071Z,5.86
2023-11-19T05:49:59.857Z,5.86
2023-11-19T05:51:41.700Z,5.85
2023-11-19T05:53:23.431Z,5.85
2023-11-19T05:55:05.202Z,5.84
2023-11-19T05:56:46.977Z,5.83
2023-11-19T05:58:28.787Z,5.82
2023-11-19T06:00:10.559Z,5.83
2023-11-19T06:01:52.353Z,5.82
2023-11-19T06:03:34.114Z,5.82
2023-11-19T06:05:15.908Z,5.81
2023-11-19T06:06:57.710Z,5.8
2023-11-19T06:08:39.575Z,5.71
2023-11-19T06:10:21.229Z,5.8
2023-11-19T06:12:03.044Z,5.79
2023-11-19T06:13:44.822Z,5.79
2023-11-19T06:15:26.627Z,5.71
2023-11-19T06:17:08.398Z,5.78
2023-11-19T06:18:50.193Z,5.78
2023-11-19T06:20:31.970Z,5.77
2023-11-19T06:22:13.751Z,5.78
2023-11-19T06:23:55.507Z,5.77
2023-11-19T06:25:37.315Z,5.75
2023-11-19T06:27:19.099Z,5.77
2023-11-19T06:29:00.895Z,5.75
2023-11-19T06:30:42.673Z,5.76
2023-11-19T06:32:24.465Z,5.65
2023-11-19T06:34:06.241Z,5.75
2023-11-19T06:35:48.026Z,5.74
2023-11-19T06:37:29.782Z,5.74
2023-11-19T06:39:11.598Z,5.72
2023-11-19T06:40:53.363Z,5.73
2023-11-19T06:42:35.162Z,5.64
2023-11-19T06:44:16.918Z,5.72
2023-11-19T06:45:58.727Z,5.71
2023-11-19T06:47:40.501Z,5.7
2023-11-19T06:49:22.298Z,5.7
2023-11-19T06:51:04.197Z,5.69
2023-11-19T06:52:45.872Z,5.69
2023-11-19T06:54:27.640Z,5.68
2023-11-19T06:56:09.427Z,5.69
2023-11-19T06:57:51.185Z,5.69
2023-11-19T06:59:32.994Z,5.68
2023-11-19T07:01:14.778Z,5.69
2023-11-19T07:02:56.693Z,5.67
2023-11-19T07:04:38.354Z,5.67
2023-11-19T07:06:20.144Z,5.67
2023-11-19T07:08:01.926Z,5.69
2023-11-19T07:09:43.833Z,5.65
2023-11-19T07:11:25.465Z,5.67
2023-11-19T07:13:07.273Z,5.66
2023-11-19T07:14:49.072Z,5.66
2023-11-19T07:16:30.836Z,5.58
2023-11-19T07:18:12.614Z,5.64
2023-11-19T07:19:54.405Z,5.64
2023-11-19T07:21:36.186Z,5.66
2023-11-19T07:23:17.994Z,5.57
2023-11-19T07:24:59.747Z,5.64
2023-11-19T07:26:41.539Z,5.63
2023-11-19T07:28:23.338Z,5.61
2023-11-19T07:30:05.119Z,5.53
2023-11-19T07:31:46.878Z,5.62
2023-11-19T07:33:28.672Z,5.6
2023-11-19T07:35:10.471Z,5.61
2023-11-19T07:36:52.244Z,5.62
2023-11-19T07:38:34.015Z,5.61
2023-11-19T07:40:15.997Z,5.61
2023-11-19T07:41:57.614Z,5.58
2023-11-19T07:43:39.387Z,5.58
2023-11-19T07:45:21.224Z,5.6
2023-11-19T07:47:02.945Z,5.59
2023-11-19T07:48:44.719Z,5.57
2023-11-19T07:50:26.511Z,5.6
2023-11-19T07:52:08.269Z,5.57
2023-11-19T07:53:50.109Z,5.57
2023-11-19T07:55:31.879Z,5.58
2023-11-19T07:57:13.666Z,5.55
2023-11-19T07:58:55.420Z,5.55
2023-11-19T08:00:37.220Z,5.56
2023-11-19T08:02:19.306Z,5.58
2023-11-19T08:04:00.956Z,5.57
2023-11-19T08:05:42.695Z,5.56
2023-11-19T08:07:24.465Z,5.55
2023-11-19T08:09:06.198Z,5.53
2023-11-19T08:10:47.906Z,5.54
2023-11-19T08:12:29.787Z,5.54
2023-11-19T08:14:11.503Z,5.54
2023-11-19T08:15:53.284Z,5.54
2023-11-19T08:17:35.085Z,5.53
2023-11-19T08:19:16.897Z,5.53
2023-11-19T08:20:58.656Z,5.53
2023-11-19T08:22:40.551Z,5.52
2023-11-19T08:24:22.253Z,5.53
2023-11-19T08:26:03.969Z,5.51
2023-11-19T08:27:45.781Z,5.53
2023-11-19T08:29:27.544Z,5.52
2023-11-19T08:31:09.371Z,5.53
2023-11-19T08:32:51.173Z,5.52
2023-11-19T08:34:32.882Z,5.5
2023-11-19T08:36:14.901Z,5.5
2023-11-19T08:37:56.637Z,5.49
2023-11-19T08:39:38.229Z,5.5
2023-11-19T08:41:20.024Z,5.49
2023-11-19T08:43:01.850Z,5.5
2023-11-19T08:44:43.679Z,5.49
2023-11-19T08:46:25.361Z,5.47
2023-11-19T08:48:07.196Z,5.48
2023-11-19T08:49:48.953Z,5.46
2023-11-19T08:51:30.807Z,5.48
2023-11-19T08:53:12.498Z,5.46
2023-11-19T08:54:54.316Z,5.45
2023-11-19T08:56:36.219Z,5.45
2023-11-19T08:58:17.992Z,5.46
2023-11-19T08:59:59.657Z,5.45
2023-11-19T09:01:41.496Z,5.44
2023-11-19T09:03:23.248Z,5.45
2023-11-19T09:05:05.015Z,5.45
2023-11-19T09:06:46.768Z,5.46
2023-11-19T09:08:28.678Z,5.44
2023-11-19T09:10:10.412Z,5.42
2023-11-19T09:11:52.132Z,5.42
2023-11-19T09:13:33.918Z,5.44
2023-11-19T09:15:15.713Z,5.43
2023-11-19T09:16:57.554Z,5.42
2023-11-19T09:18:39.293Z,5.44
2023-11-19T09:20:21.044Z,5.35
2023-11-19T09:22:02.834Z,5.45
2023-11-19T09:23:44.753Z,5.44
2023-11-19T09:25:26.408Z,5.42
2023-11-19T09:27:08.238Z,5.41
2023-11-19T09:28:49.987Z,5.4
2023-11-19T09:30:31.758Z,5.41
2023-11-19T09:32:13.554Z,5.41
2023-11-19T09:33:55.331Z,5.41
2023-11-19T09:35:37.246Z,5.39
2023-11-19T09:37:18.899Z,5.41
2023-11-19T09:39:00.702Z,5.4
2023-11-19T09:40:42.462Z,5.41
2023-11-19T09:42:24.260Z,5.39
2023-11-19T09:44:06.030Z,5.39
2023-11-19T09:45:47.825Z,5.41
2023-11-19T09:47:29.646Z,5.32
2023-11-19T09:49:11.383Z,5.38
2023-11-19T09:50:53.221Z,5.38
2023-11-19T09:52:34.999Z,5.38
2023-11-19T09:54:16.721Z,5.38
2023-11-19T09:55:58.640Z,5.4
2023-11-19T09:57:40.519Z,5.39
2023-11-19T09:59:22.074Z,5.38
2023-11-19T10:01:03.890Z,5.39
2023-11-19T10:02:45.670Z,5.31
2023-11-19T10:04:27.439Z,5.4
2023-11-19T10:06:09.223Z,5.4
2023-11-19T10:07:51.015Z,5.41
2023-11-19T10:09:32.788Z,5.43
2023-11-19T10:11:14.587Z,5.44
2023-11-19T10:12:56.353Z,5.44
2023-11-19T10:14:38.165Z,5.45
2023-11-19T10:16:19.920Z,5.47
2023-11-19T10:18:01.724Z,5.49
2023-11-19T10:19:43.513Z,5.42
2023-11-19T10:21:25.289Z,5.46
2023-11-19T10:23:07.077Z,5.55
2023-11-19T10:24:48.875Z,5.56
2023-11-19T10:26:30.632Z,5.59
2023-11-19T10:28:12.407Z,5.62
2023-11-19T10:29:54.186Z,5.64
2023-11-19T10:31:36.052Z,5.64
2023-11-19T10:33:17.779Z,5.68
2023-11-19T10:34:59.531Z,5.68
2023-11-19T10:36:41.344Z,5.74
2023-11-19T10:38:23.113Z,5.74
2023-11-19T10:40:04.910Z,5.78
2023-11-19T10:41:46.791Z,5.8
2023-11-19T10:43:28.586Z,5.84
2023-11-19T10:45:10.262Z,5.85
2023-11-19T10:46:52.162Z,5.86
2023-11-19T10:48:33.820Z,5.9
2023-11-19T10:50:15.713Z,5.92
2023-11-19T10:51:57.436Z,5.97
2023-11-19T10:53:39.186Z,6.01
2023-11-19T10:55:21.056Z,6.05
2023-11-19T10:57:02.754Z,6.08
2023-11-19T10:58:44.538Z,6.13
2023-11-19T11:00:26.313Z,6.19
2023-11-19T11:02:08.067Z,6.23
2023-11-19T11:03:49.902Z,6.17
2023-11-19T11:05:31.659Z,6.33
2023-11-19T11:07:13.438Z,6.37
2023-11-19T11:08:55.233Z,6.42
2023-11-19T11:10:37.018Z,6.46
2023-11-19T11:12:18.802Z,6.52
2023-11-19T11:14:00.584Z,6.59
2023-11-19T11:15:42.349Z,6.64
2023-11-19T11:17:24.149Z,6.65
2023-11-19T11:19:05.943Z,6.7
2023-11-19T11:20:47.715Z,6.69
2023-11-19T11:22:29.467Z,6.82
2023-11-19T11:24:11.305Z,6.86
2023-11-19T11:25:53.069Z,6.88
2023-11-19T11:27:34.867Z,6.95
2023-11-19T11:29:16.615Z,6.98
2023-11-19T11:30:58.427Z,6.95
2023-11-19T11:32:40.219Z,7.08
2023-11-19T11:34:21.997Z,7.11
2023-11-19T11:36:03.757Z,7.15
2023-11-19T11:37:45.562Z,7.19
2023-11-19T11:39:27.319Z,7.24
2023-11-19T11:41:09.122Z,7.27
2023-11-19T11:42:50.911Z,7.33
2023-11-19T11:44:32.684Z,7.36
2023-11-19T11:46:14.470Z,7.43
2023-11-19T11:47:56.274Z,7.45
2023-11-19T11:49:38.038Z,7.44
2023-11-19T11:51:19.826Z,7.56
2023-11-19T11:53:01.620Z,7.59
2023-11-19T11:54:43.394Z,7.59
2023-11-19T11:56:25.147Z,7.71
2023-11-19T11:58:06.950Z,7.7
2023-11-19T11:59:48.753Z,7.76
2023-11-19T12:01:30.534Z,7.79
2023-11-19T12:03:12.313Z,7.91
2023-11-19T12:04:54.125Z,7.98
2023-11-19T12:06:35.878Z,8.01
2023-11-19T12:08:17.673Z,8.08
2023-11-19T12:09:59.427Z,8.13
2023-11-19T12:11:41.390Z,8.18
2023-11-19T12:13:23.029Z,8.22
2023-11-19T12:15:04.799Z,8.27
2023-11-19T12:16:46.595Z,8.35
2023-11-19T12:18:28.422Z,8.42
2023-11-19T12:20:10.165Z,8.47
2023-11-19T12:21:51.947Z,8.52
2023-11-19T12:23:33.725Z,8.57
2023-11-19T12:25:15.511Z,8.64
2023-11-19T12:26:57.296Z,8.72
2023-11-19T12:28:39.069Z,8.7
2023-11-19T12:30:20.830Z,8.8
2023-11-19T12:32:02.655Z,8.85
2023-11-19T12:33:44.414Z,8.91
2023-11-19T12:35:26.217Z,8.87
2023-11-19T12:37:07.982Z,9
2023-11-19T12:38:49.779Z,9.03
2023-11-19T12:40:31.586Z,9.07
2023-11-19T12:42:13.348Z,9.1
2023-11-19T12:43:55.111Z,9.14
2023-11-19T12:45:36.911Z,9.17
2023-11-19T12:47:18.706Z,9.21
2023-11-19T12:49:00.471Z,9.25
2023-11-19T12:50:42.268Z,9.28
2023-11-19T12:52:24.075Z,9.29
2023-11-19T12:54:05.836Z,9.32
2023-11-19T12:55:47.620Z,9.34
2023-11-19T12:57:29.398Z,9.37
2023-11-19T12:59:11.185Z,9.39
2023-11-19T13:00:52.983Z,9.39
2023-11-19T13:02:34.743Z,9.43
2023-11-19T13:04:16.531Z,9.45
2023-11-19T13:05:58.331Z,9.47
2023-11-19T13:07:40.116Z,9.49
2023-11-19T13:09:21.899Z,9.51
2023-11-19T13:11:03.667Z,9.51
2023-11-19T13:12:45.458Z,9.53
2023-11-19T13:14:27.236Z,9.54
2023-11-19T13:16:09.035Z,9.55
2023-11-19T13:17:50.875Z,9.56
2023-11-19T13:19:32.596Z,9.57
2023-11-19T13:21:14.383Z,9.58
2023-11-19T13:22:56.163Z,9.6
2023-11-19T13:24:37.941Z,9.6
2023-11-19T13:26:19.738Z,9.62
2023-11-19T13:28:01.529Z,9.6
2023-11-19T13:29:43.316Z,9.62
2023-11-19T13:31:25.081Z,9.54
2023-11-19T13:33:06.865Z,9.57
2023-11-19T13:34:48.656Z,9.57
2023-11-19T13:36:30.435Z,9.64
2023-11-19T13:38:12.194Z,9.64
2023-11-19T13:39:53.995Z,9.68
2023-11-19T13:41:35.796Z,9.68
2023-11-19T13:43:17.570Z,9.7
2023-11-19T13:44:59.423Z,9.68
2023-11-19T13:46:41.212Z,9.71
2023-11-19T13:48:22.927Z,9.72
2023-11-19T13:50:04.711Z,9.74
2023-11-19T13:51:46.466Z,9.76
2023-11-19T13:53:28.305Z,9.78
2023-11-19T13:55:10.076Z,9.7
2023-11-19T13:56:51.873Z,9.8
2023-11-19T13:58:33.639Z,9.81
2023-11-19T14:00:15.421Z,9.75
2023-11-19T14:01:57.178Z,9.83
2023-11-19T14:03:38.956Z,9.84
2023-11-19T14:05:20.742Z,9.84
2023-11-19T14:07:02.554Z,9.85
2023-11-19T14:08:44.332Z,9.84
2023-11-19T14:10:26.109Z,9.85
2023-11-19T14:12:07.883Z,9.88
2023-11-19T14:13:49.768Z,9.88
2023-11-19T14:15:31.467Z,9.88
2023-11-19T14:17:13.247Z,9.84
2023-11-19T14:18:55.029Z,9.91
2023-11-19T14:20:36.838Z,9.92
2023-11-19T14:22:18.606Z,9.89
2023-11-19T14:24:00.415Z,9.93
2023-11-19T14:25:42.156Z,9.92
2023-11-19T14:27:23.954Z,9.92
2023-11-19T14:29:05.760Z,9.92
2023-11-19T14:30:47.521Z,9.93
2023-11-19T14:32:29.427Z,9.92
2023-11-19T14:34:11.108Z,9.93
2023-11-19T14:35:52.874Z,9.92
2023-11-19T14:37:34.671Z,9.93
2023-11-19T14:39:16.460Z,9.92
2023-11-19T14:40:58.281Z,9.92
2023-11-19T14:42:39.998Z,9.93
2023-11-19T14:44:21.790Z,9.93
2023-11-19T14:46:03.594Z,9.92
2023-11-19T14:47:45.348Z,9.92
2023-11-19T14:49:27.176Z,9.93
2023-11-19T14:51:08.967Z,9.92
2023-11-19T14:52:50.715Z,9.92
2023-11-19T14:54:32.489Z,9.92
2023-11-19T14:56:14.278Z,9.91
2023-11-19T14:57:56.065Z,9.92
2023-11-19T14:59:37.824Z,9.91
2023-11-19T15:01:19.619Z,9.92
2023-11-19T15:03:01.404Z,9.84
2023-11-19T15:04:43.191Z,9.92
2023-11-19T15:06:24.969Z,9.89
2023-11-19T15:08:06.772Z,9.91
2023-11-19T15:09:48.597Z,9.89
2023-11-19T15:11:30.358Z,9.91
2023-11-19T15:13:12.117Z,9.89
2023-11-19T15:14:54.010Z,9.89
2023-11-19T15:16:35.701Z,9.89
2023-11-19T15:18:17.477Z,9.88
2023-11-19T15:19:59.256Z,9.88
2023-11-19T15:21:41.081Z,9.85
2023-11-19T15:23:22.827Z,9.85
2023-11-19T15:25:04.610Z,9.85
2023-11-19T15:26:46.436Z,9.84
2023-11-19T15:28:28.166Z,9.85
2023-11-19T15:30:09.969Z,9.85
2023-11-19T15:31:51.822Z,9.85
2023-11-19T15:33:33.526Z,9.84
2023-11-19T15:35:15.322Z,9.84
2023-11-19T15:36:57.152Z,9.83
2023-11-19T15:38:38.911Z,9.84
2023-11-19T15:40:20.671Z,9.84
2023-11-19T15:42:02.520Z,9.82
2023-11-19T15:43:44.342Z,9.82
2023-11-19T15:45:26.054Z,9.82
2023-11-19T15:47:07.816Z,9.81
2023-11-19T15:48:49.658Z,9.82
2023-11-19T15:50:31.402Z,9.83
2023-11-19T15:52:13.184Z,9.82
2023-11-19T15:53:55.033Z,9.8
2023-11-19T15:55:36.736Z,9.8
2023-11-19T15:57:18.576Z,9.81
2023-11-19T15:59:00.316Z,9.8
2023-11-19T16:00:42.127Z,9.79
2023-11-19T16:02:23.870Z,9.8
2023-11-19T16:04:05.732Z,9.79
2023-11-19T16:05:47.437Z,9.78
2023-11-19T16:07:29.303Z,9.78
2023-11-19T16:09:11.028Z,9.77
2023-11-19T16:10:52.799Z,9.77
2023-11-19T16:12:34.582Z,9.77
2023-11-19T16:14:16.341Z,9.77
2023-11-19T16:15:58.144Z,9.75
2023-11-19T16:17:39.921Z,9.75
2023-11-19T16:19:21.776Z,9.76
2023-11-19T16:21:03.537Z,9.76
2023-11-19T16:22:45.272Z,9.72
2023-11-19T16:24:27.118Z,9.76
2023-11-19T16:26:08.844Z,9.75
2023-11-19T16:27:50.620Z,9.74
2023-11-19T16:29:32.437Z,9.72
2023-11-19T16:31:14.210Z,9.72
2023-11-19T16:32:56.222Z,9.72
2023-11-19T16:34:37.849Z,9.71
2023-11-19T16:36:19.620Z,9.71
2023-11-19T16:38:01.657Z,9.71
2023-11-19T16:39:43.137Z,9.7
2023-11-19T16:41:25.196Z,9.71
2023-11-19T16:43:06.895Z,9.62
2023-11-19T16:44:48.724Z,9.7
2023-11-19T16:46:30.257Z,9.68
2023-11-19T16:48:12.111Z,9.68
2023-11-19T16:49:53.942Z,9.68
2023-11-19T16:51:35.633Z,9.68
2023-11-19T16:53:17.379Z,9.68
2023-11-19T16:54:59.212Z,9.66
2023-11-19T16:56:41.118Z,9.67
2023-11-19T16:58:22.743Z,9.66
2023-11-19T17:00:04.648Z,9.67
2023-11-19T17:01:46.317Z,9.64
2023-11-19T17:03:28.311Z,9.64
2023-11-19T17:05:09.918Z,9.66
2023-11-19T17:06:51.650Z,9.58
2023-11-19T17:08:33.445Z,9.64
2023-11-19T17:10:15.298Z,9.64
2023-11-19T17:11:57.007Z,9.62
2023-11-19T17:13:38.823Z,9.62
2023-11-19T17:15:20.576Z,9.64
2023-11-19T17:17:02.404Z,9.62
2023-11-19T17:18:44.312Z,9.62
2023-11-19T17:20:25.930Z,9.63
2023-11-19T17:22:07.785Z,9.62
2023-11-19T17:23:49.513Z,9.6
2023-11-19T17:25:31.296Z,9.6
2023-11-19T17:27:13.056Z,9.6
2023-11-19T17:28:54.830Z,9.59
2023-11-19T17:30:36.650Z,9.59
2023-11-19T17:32:18.413Z,9.59
2023-11-19T17:34:00.260Z,9.51
2023-11-19T17:35:41.991Z,9.56
2023-11-19T17:37:23.776Z,9.58
2023-11-19T17:39:05.561Z,9.57
2023-11-19T17:40:47.356Z,9.56
2023-11-19T17:42:29.110Z,9.56
2023-11-19T17:44:10.896Z,9.55
2023-11-19T17:45:52.712Z,9.56
2023-11-19T17:47:34.465Z,9.55
2023-11-19T17:49:16.262Z,9.55
2023-11-19T17:50:58.080Z,9.53
2023-11-19T17:52:39.827Z,9.54
2023-11-19T17:54:21.614Z,9.54
2023-11-19T17:56:03.446Z,9.53
2023-11-19T17:57:45.173Z,9.53
2023-11-19T17:59:26.971Z,9.53
2023-11-19T18:01:08.743Z,9.52
2023-11-19T18:02:50.588Z,9.51
2023-11-19T18:04:32.325Z,9.52
2023-11-19T18:06:14.118Z,9.5
2023-11-19T18:07:55.898Z,9.43
2023-11-19T18:09:37.748Z,9.52
2023-11-19T18:11:19.452Z,9.51
2023-11-19T18:13:01.280Z,9.5
2023-11-19T18:14:43.036Z,9.49
2023-11-19T18:16:24.789Z,9.49
2023-11-19T18:18:06.618Z,9.47
2023-11-19T18:19:48.392Z,9.47
2023-11-19T18:21:30.225Z,9.47
2023-11-19T18:23:12.025Z,9.47
2023-11-19T18:24:53.740Z,9.47
2023-11-19T18:26:35.515Z,9.39
2023-11-19T18:28:17.305Z,9.47
2023-11-19T18:29:59.088Z,9.47
2023-11-19T18:31:41.017Z,9.45
2023-11-19T18:33:22.653Z,9.45
2023-11-19T18:35:04.475Z,9.45
2023-11-19T18:36:46.272Z,9.45
2023-11-19T18:38:28.002Z,9.43
2023-11-19T18:40:09.839Z,9.43
2023-11-19T18:41:51.692Z,9.43
2023-11-19T18:43:33.331Z,9.41
2023-11-19T18:45:15.140Z,9.42
2023-11-19T18:46:56.891Z,9.41
2023-11-19T18:48:38.680Z,9.43
2023-11-19T18:50:20.459Z,9.41
2023-11-19T18:52:02.252Z,9.41
2023-11-19T18:53:44.123Z,9.41
2023-11-19T18:55:25.955Z,9.41
2023-11-19T18:57:07.647Z,9.39
2023-11-19T18:58:49.538Z,9.39
2023-11-19T19:00:31.290Z,9.39
2023-11-19T19:02:12.981Z,9.39
2023-11-19T19:03:54.818Z,9.38
2023-11-19T19:05:36.705Z,9.37
2023-11-19T19:07:18.397Z,9.38
2023-11-19T19:09:00.100Z,9.37
2023-11-19T19:10:42.014Z,9.37
2023-11-19T19:12:23.709Z,9.37
2023-11-19T19:14:05.689Z,9.37
2023-11-19T19:15:47.312Z,9.35
2023-11-19T19:17:29.076Z,9.35
2023-11-19T19:19:10.884Z,9.35
2023-11-19T19:20:52.662Z,9.35
2023-11-19T19:22:34.464Z,9.34
2023-11-19T19:24:16.148Z,9.35
2023-11-19T19:25:57.966Z,9.33
2023-11-19T19:27:39.840Z,9.35
2023-11-19T19:29:21.521Z,9.33
2023-11-19T19:31:03.268Z,9.32
2023-11-19T19:32:45.083Z,9.32
2023-11-19T19:34:26.881Z,9.32
2023-11-19T19:36:08.627Z,9.33
2023-11-19T19:37:50.531Z,9.32
2023-11-19T19:39:32.306Z,9.32
2023-11-19T19:41:14.014Z,9.31
2023-11-19T19:42:55.888Z,9.3
2023-11-19T19:44:37.755Z,9.31
2023-11-19T19:46:19.447Z,9.29
2023-11-19T19:48:01.140Z,9.3
2023-11-19T19:49:42.908Z,9.3
2023-11-19T19:51:24.684Z,9.3
2023-11-19T19:53:06.551Z,9.28
2023-11-19T19:54:48.348Z,9.22
2023-11-19T19:56:30.245Z,9.28
2023-11-19T19:58:11.891Z,9.28
2023-11-19T19:59:53.690Z,9.27
2023-11-19T20:01:35.419Z,9.26
2023-11-19T20:03:17.199Z,9.26
2023-11-19T20:04:58.973Z,9.26
2023-11-19T20:06:40.788Z,9.26
2023-11-19T20:08:22.553Z,9.27
2023-11-19T20:10:04.313Z,9.27
2023-11-19T20:11:46.143Z,9.24
2023-11-19T20:13:27.892Z,9.24
2023-11-19T20:15:09.702Z,9.25
2023-11-19T20:16:51.615Z,9.24
2023-11-19T20:18:33.226Z,9.22
2023-11-19T20:20:15.032Z,9.25
2023-11-19T20:21:56.825Z,9.22
2023-11-19T20:23:38.654Z,9.22
2023-11-19T20:25:20.350Z,9.22
2023-11-19T20:27:02.189Z,9.22
2023-11-19T20:28:43.981Z,9.22
2023-11-19T20:30:25.736Z,9.22
2023-11-19T20:32:07.599Z,9.22
2023-11-19T20:33:49.346Z,9.21
2023-11-19T20:35:31.071Z,9.22
2023-11-19T20:37:12.965Z,9.22
2023-11-19T20:38:54.651Z,9.2
2023-11-19T20:40:36.462Z,9.22
2023-11-19T20:42:18.215Z,9.2
2023-11-19T20:44:00.022Z,9.2
2023-11-19T20:45:41.756Z,9.18
2023-11-19T20:47:23.569Z,9.18
2023-11-19T20:49:05.345Z,9.18
2023-11-19T20:50:47.303Z,9.18
2023-11-19T20:52:28.905Z,9.17
2023-11-19T20:54:10.684Z,9.16
2023-11-19T20:55:52.489Z,9.17
2023-11-19T20:57:34.298Z,9.16
2023-11-19T20:59:16.062Z,9.17
2023-11-19T21:00:57.844Z,9.16
2023-11-19T21:02:39.635Z,9.14
2023-11-19T21:04:21.412Z,9.14
2023-11-19T21:06:03.265Z,9.17
2023-11-19T21:07:44.964Z,9.16
2023-11-19T21:09:26.773Z,9.16
2023-11-19T21:11:08.543Z,9.12
2023-11-19T21:12:50.367Z,9.13
2023-11-19T21:14:32.219Z,9.13
2023-11-19T21:16:13.905Z,9.13
2023-11-19T21:17:55.701Z,9.13
2023-11-19T21:19:37.456Z,9.12
2023-11-19T21:21:19.236Z,9.14
2023-11-19T21:23:01.022Z,9.13
2023-11-19T21:24:42.979Z,9.13
2023-11-19T21:26:24.600Z,9.05
2023-11-19T21:28:06.396Z,9.1
2023-11-19T21:29:48.332Z,9.1
2023-11-19T21:31:30.043Z,9.1
2023-11-19T21:33:11.866Z,9.09
2023-11-19T21:34:53.561Z,9.02
2023-11-19T21:36:35.300Z,9.1
2023-11-19T21:38:17.191Z,9.1
2023-11-19T21:39:58.865Z,9.09
2023-11-19T21:41:40.682Z,9.09
2023-11-19T21:43:22.457Z,9.07
2023-11-19T21:45:04.236Z,9.08
2023-11-19T21:46:46.041Z,9.08
2023-11-19T21:48:27.771Z,9.07
2023-11-19T21:50:09.550Z,9.07
2023-11-19T21:51:51.357Z,8.99
2023-11-19T21:53:33.232Z,9.06
2023-11-19T21:55:14.969Z,9.05
2023-11-19T21:56:56.711Z,9.05
2023-11-19T21:58:38.519Z,9.06
2023-11-19T22:00:20.253Z,9.05
2023-11-19T22:02:02.055Z,9.05